createdAt,value
2022-12-04T00:00:35.352Z,3.37
2022-12-04T00:03:03.109Z,3.67
2022-12-04T00:05:30.472Z,4.20
2022-12-04T00:07:57.850Z,4.03
2022-12-04T00:10:25.520Z,2.90
2022-12-04T00:12:52.872Z,3.23
2022-12-04T00:15:27.517Z,3.00
2022-12-04T00:17:55.483Z,3.00
2022-12-04T00:20:23.355Z,3.90
2022-12-04T00:22:50.973Z,3.60
2022-12-04T00:25:19.144Z,3.17
2022-12-04T00:27:46.801Z,3.33
2022-12-04T00:30:14.369Z,2.70
2022-12-04T00:32:42.225Z,2.40
2022-12-04T00:35:10.179Z,2.70
2022-12-04T00:37:37.680Z,3.23
2022-12-04T00:40:06.382Z,2.87
2022-12-04T00:42:33.905Z,2.80
2022-12-04T00:45:01.332Z,3.47
2022-12-04T00:47:29.049Z,3.10
2022-12-04T00:49:56.765Z,3.20
2022-12-04T00:52:25.688Z,3.20
2022-12-04T00:57:20.922Z,2.80
2022-12-04T00:59:48.396Z,2.73
2022-12-04T01:02:16.239Z,2.60
2022-12-04T01:04:43.681Z,2.27
2022-12-04T01:07:11.144Z,3.20
2022-12-04T01:09:38.911Z,2.10
2022-12-04T01:12:06.494Z,2.53
2022-12-04T01:14:33.929Z,2.20
2022-12-04T01:17:01.798Z,2.77
2022-12-04T01:19:29.267Z,2.73
2022-12-04T01:21:56.661Z,2.73
2022-12-04T01:24:24.406Z,2.60
2022-12-04T01:26:52.140Z,1.80
2022-12-04T01:29:19.680Z,2.50
2022-12-04T01:31:47.430Z,3.20
2022-12-04T01:34:14.843Z,5.60
2022-12-04T01:36:42.242Z,4.40
2022-12-04T01:39:10.028Z,2.87
2022-12-04T01:41:37.385Z,2.33
2022-12-04T01:44:12.844Z,1.80
2022-12-04T01:46:41.958Z,2.00
2022-12-04T01:49:14.984Z,2.00
2022-12-04T01:51:48.198Z,2.00
2022-12-04T01:54:21.312Z,2.13
2022-12-04T01:56:58.495Z,2.33
2022-12-04T01:59:31.227Z,2.10
2022-12-04T02:02:22.659Z,2.03
2022-12-04T02:04:50.991Z,2.20
2022-12-04T02:07:18.296Z,2.13
2022-12-04T02:09:46.360Z,1.80
2022-12-04T02:12:23.689Z,2.20
2022-12-04T02:15:07.064Z,2.33
2022-12-04T02:17:50.149Z,2.70
2022-12-04T02:20:22.245Z,2.27
2022-12-04T02:23:11.801Z,2.30
2022-12-04T02:28:28.835Z,1.83
2022-12-04T02:31:00.255Z,2.17
2022-12-04T02:33:50.884Z,1.97
2022-12-04T02:36:24.739Z,2.67
2022-12-04T02:38:59.471Z,1.83
2022-12-04T02:42:07.188Z,2.00
2022-12-04T02:44:44.096Z,2.03
2022-12-04T02:47:19.995Z,2.03
2022-12-04T02:49:54.347Z,1.77
2022-12-04T02:52:29.593Z,2.07
2022-12-04T02:55:08.017Z,2.53
2022-12-04T02:57:41.214Z,1.85
2022-12-04T03:00:10.172Z,1.53
2022-12-04T03:02:58.085Z,2.15
2022-12-04T03:05:39.928Z,1.53
2022-12-04T03:08:19.757Z,2.03
2022-12-04T03:10:55.389Z,1.87
2022-12-04T03:13:31.533Z,1.83
2022-12-04T03:16:10.048Z,1.60
2022-12-04T03:18:56.196Z,1.90
2022-12-04T03:21:29.976Z,1.77
2022-12-04T03:24:12.919Z,1.90
2022-12-04T03:27:15.244Z,1.83
2022-12-04T03:29:58.342Z,1.90
2022-12-04T03:32:32.211Z,2.13
2022-12-04T03:35:04.351Z,2.17
2022-12-04T03:37:43.716Z,1.80
2022-12-04T03:40:22.353Z,1.95
2022-12-04T03:43:00.259Z,2.50
2022-12-04T03:45:34.604Z,2.00
2022-12-04T03:48:11.656Z,2.60
2022-12-04T03:50:47.362Z,2.10
2022-12-04T03:53:29.806Z,2.20
2022-12-04T03:56:07.626Z,2.47
2022-12-04T03:58:39.806Z,2.27
2022-12-04T04:01:12.457Z,2.40
2022-12-04T04:03:54.761Z,2.00
2022-12-04T04:06:33.919Z,2.00
2022-12-04T04:09:07.952Z,2.63
2022-12-04T04:11:47.181Z,2.30
2022-12-04T04:14:40.480Z,2.40
2022-12-04T04:17:37.947Z,2.90
2022-12-04T04:20:30.869Z,2.55
2022-12-04T04:23:21.488Z,2.37
2022-12-04T04:25:51.905Z,2.77
2022-12-04T04:28:40.329Z,2.73
2022-12-04T04:31:21.607Z,3.87
2022-12-04T04:34:23.455Z,4.10
2022-12-04T04:37:10.153Z,3.20
2022-12-04T04:39:45.694Z,3.23
2022-12-04T04:42:28.147Z,3.40
2022-12-04T04:45:06.222Z,3.20
2022-12-04T04:48:17.170Z,3.87
2022-12-04T04:50:45.874Z,3.47
2022-12-04T04:53:18.148Z,3.17
2022-12-04T04:55:46.205Z,3.40
2022-12-04T04:58:17.670Z,3.43
2022-12-04T05:00:48.728Z,2.90
2022-12-04T05:03:16.480Z,3.00
2022-12-04T05:05:44.041Z,2.77
2022-12-04T05:08:11.485Z,2.43
2022-12-04T05:10:39.284Z,6.03
2022-12-04T05:13:06.668Z,4.13
2022-12-04T05:15:34.037Z,3.80
2022-12-04T05:18:01.768Z,6.07
2022-12-04T05:20:29.167Z,3.80
2022-12-04T05:22:56.603Z,3.30
2022-12-04T05:25:24.392Z,3.53
2022-12-04T05:27:51.885Z,3.23
2022-12-04T05:30:19.302Z,3.37
2022-12-04T05:32:46.980Z,5.07
2022-12-04T05:35:14.332Z,3.70
2022-12-04T05:37:42.942Z,2.53
2022-12-04T05:40:11.287Z,3.50
2022-12-04T05:45:07.633Z,2.80
2022-12-04T05:47:40.145Z,3.50
2022-12-04T05:50:09.586Z,2.87
2022-12-04T05:52:37.324Z,3.27
2022-12-04T05:55:06.845Z,2.80
2022-12-04T05:57:34.106Z,3.30
2022-12-04T06:00:01.781Z,4.13
2022-12-04T06:02:38.495Z,3.30
2022-12-04T06:05:06.745Z,3.07
2022-12-04T06:07:34.150Z,4.53
2022-12-04T06:10:01.917Z,3.47
2022-12-04T06:12:30.626Z,3.57
2022-12-04T06:14:59.187Z,3.60
2022-12-04T06:17:26.513Z,3.47
2022-12-04T06:19:56.289Z,3.17
2022-12-04T06:22:25.229Z,3.20
2022-12-04T06:24:52.676Z,3.10
2022-12-04T06:27:28.710Z,3.33
2022-12-04T06:29:56.605Z,4.37
2022-12-04T06:32:24.927Z,4.67
2022-12-04T06:34:53.901Z,3.73
2022-12-04T06:37:23.504Z,5.20
2022-12-04T06:39:51.209Z,5.33
2022-12-04T06:42:18.558Z,4.40
2022-12-04T06:44:45.876Z,5.63
2022-12-04T06:47:13.507Z,4.47
2022-12-04T06:49:40.949Z,4.53
2022-12-04T06:52:08.297Z,5.30
2022-12-04T06:54:35.957Z,4.97
2022-12-04T06:57:03.257Z,4.90
2022-12-04T06:59:30.511Z,4.70
2022-12-04T07:01:58.603Z,5.80
2022-12-04T07:04:26.100Z,5.43
2022-12-04T07:06:53.609Z,5.00
2022-12-04T07:09:21.306Z,5.50
2022-12-04T07:11:48.877Z,4.53
2022-12-04T07:14:16.230Z,4.90
2022-12-04T07:16:44.115Z,5.30
2022-12-04T07:19:14.148Z,4.50
2022-12-04T07:21:42.691Z,4.27
2022-12-04T07:24:15.739Z,5.12
2022-12-04T07:26:43.510Z,4.40
2022-12-04T07:29:11.304Z,4.67
2022-12-04T07:31:38.785Z,4.93
2022-12-04T07:34:06.273Z,4.30
2022-12-04T07:36:33.941Z,5.03
2022-12-04T07:39:01.265Z,4.70
2022-12-04T07:41:28.692Z,4.30
2022-12-04T07:43:56.418Z,5.80
2022-12-04T07:46:26.843Z,9.33
2022-12-04T07:48:58.833Z,6.13
2022-12-04T07:51:28.980Z,4.40
2022-12-04T07:54:03.683Z,4.13
2022-12-04T07:56:33.771Z,6.13
2022-12-04T07:59:01.743Z,4.37
2022-12-04T08:01:29.101Z,4.10
2022-12-04T08:03:58.605Z,3.20
2022-12-04T08:08:54.977Z,3.43
2022-12-04T08:11:25.050Z,3.73
2022-12-04T08:13:57.710Z,7.10
2022-12-04T08:16:26.328Z,9.60
2022-12-04T08:18:54.449Z,10.13
2022-12-04T08:21:23.966Z,8.67
2022-12-04T08:23:54.623Z,4.17
2022-12-04T08:26:24.123Z,5.73
2022-12-04T08:28:56.856Z,3.30
2022-12-04T08:31:26.719Z,5.40
2022-12-04T08:33:57.065Z,3.47
2022-12-04T08:36:25.093Z,3.43
2022-12-04T08:38:52.642Z,3.37
2022-12-04T08:41:24.203Z,3.63
2022-12-04T08:43:56.134Z,3.20
2022-12-04T08:46:26.474Z,4.13
2022-12-04T08:48:54.824Z,3.50
2022-12-04T08:51:28.686Z,4.50
2022-12-04T08:54:01.637Z,3.97
2022-12-04T08:56:30.223Z,3.47
2022-12-04T08:58:58.844Z,3.75
2022-12-04T09:01:27.274Z,4.77
2022-12-04T09:03:55.352Z,4.00
2022-12-04T09:06:24.170Z,6.10
2022-12-04T09:08:56.637Z,4.53
2022-12-04T09:11:27.755Z,4.57
2022-12-04T09:13:56.152Z,4.17
2022-12-04T09:16:25.475Z,4.32
2022-12-04T09:18:53.153Z,4.75
2022-12-04T09:21:22.772Z,9.40
2022-12-04T09:23:51.394Z,5.30
2022-12-04T09:26:21.719Z,6.33
2022-12-04T09:28:50.215Z,7.70
2022-12-04T09:31:19.060Z,5.45
2022-12-04T09:33:46.806Z,6.47
2022-12-04T09:36:16.502Z,4.80
2022-12-04T09:38:46.196Z,5.13
2022-12-04T09:41:32.420Z,4.67
2022-12-04T09:44:15.820Z,5.77
2022-12-04T09:46:59.147Z,4.63
2022-12-04T09:49:36.754Z,4.67
2022-12-04T09:52:20.298Z,6.03
2022-12-04T09:54:51.136Z,4.77
2022-12-04T09:57:44.379Z,4.82
2022-12-04T10:00:15.512Z,4.23
2022-12-04T10:02:49.618Z,5.07
2022-12-04T10:05:29.000Z,6.30
2022-12-04T10:08:29.333Z,5.23
2022-12-04T10:11:15.216Z,5.07
2022-12-04T10:14:04.121Z,4.70
2022-12-04T10:16:50.355Z,4.93
2022-12-04T10:19:30.349Z,4.70
2022-12-04T10:22:24.508Z,10.40
2022-12-04T10:24:56.489Z,27.90
2022-12-04T10:27:23.808Z,6.37
2022-12-04T10:29:58.489Z,6.37
2022-12-04T10:32:31.614Z,6.67
2022-12-04T10:35:09.133Z,5.30
2022-12-04T10:37:41.525Z,4.33
2022-12-04T10:40:23.461Z,6.77
2022-12-04T10:42:57.943Z,5.77
2022-12-04T10:45:25.524Z,5.20
2022-12-04T10:47:53.977Z,5.60
2022-12-04T10:50:24.283Z,5.53
2022-12-04T10:52:52.290Z,5.00
2022-12-04T10:55:34.875Z,6.47
2022-12-04T10:58:03.077Z,6.20
2022-12-04T11:00:35.701Z,7.18
2022-12-04T11:03:09.280Z,5.87
2022-12-04T11:05:55.709Z,7.13
2022-12-04T11:08:26.414Z,7.07
2022-12-04T11:11:01.602Z,6.07
2022-12-04T11:13:29.756Z,6.03
2022-12-04T11:15:58.766Z,5.87
2022-12-04T11:18:30.099Z,5.90
2022-12-04T11:21:15.572Z,6.90
2022-12-04T11:23:49.688Z,7.67
2022-12-04T11:26:30.298Z,5.80
2022-12-04T11:29:01.671Z,8.10
2022-12-04T11:31:31.493Z,5.83
2022-12-04T11:34:03.181Z,6.90
2022-12-04T11:36:34.489Z,7.17
2022-12-04T11:39:07.486Z,7.27
2022-12-04T11:41:35.274Z,8.80
2022-12-04T11:44:02.845Z,7.97
2022-12-04T11:46:34.289Z,6.80
2022-12-04T11:49:03.825Z,7.53
2022-12-04T11:51:39.898Z,9.60
2022-12-04T11:54:26.783Z,9.03
2022-12-04T11:57:07.199Z,6.43
2022-12-04T11:59:59.873Z,8.00
2022-12-04T12:02:55.146Z,6.97
2022-12-04T12:06:15.118Z,8.07
2022-12-04T12:08:56.387Z,6.70
2022-12-04T12:11:33.104Z,8.60
2022-12-04T12:14:14.637Z,9.37
2022-12-04T12:17:30.627Z,7.27
2022-12-04T12:20:27.917Z,7.97
2022-12-04T12:23:12.009Z,7.17
2022-12-04T12:25:39.443Z,8.03
2022-12-04T12:28:25.474Z,8.03
2022-12-04T12:31:18.458Z,8.60
2022-12-04T12:34:11.387Z,7.30
2022-12-04T12:36:47.643Z,7.87
2022-12-04T12:39:20.947Z,8.57
2022-12-04T12:41:59.273Z,8.67
2022-12-04T12:44:45.302Z,8.73
2022-12-04T12:47:20.101Z,7.70
2022-12-04T12:50:06.982Z,8.33
2022-12-04T12:53:09.847Z,7.30
2022-12-04T12:55:44.804Z,7.33
2022-12-04T12:58:21.517Z,8.90
2022-12-04T13:01:02.719Z,8.07
2022-12-04T13:03:41.281Z,8.90
2022-12-04T13:06:19.393Z,7.37
2022-12-04T13:09:16.822Z,7.83
2022-12-04T13:11:47.552Z,11.60
2022-12-04T13:14:15.000Z,29.23
2022-12-04T13:16:48.924Z,27.43
2022-12-04T13:19:20.023Z,22.20
2022-12-04T13:22:08.833Z,13.63
2022-12-04T13:27:35.480Z,6.17
2022-12-04T13:30:24.192Z,8.07
2022-12-04T13:33:22.707Z,6.43
2022-12-04T13:36:03.887Z,39.03
2022-12-04T13:39:16.520Z,17.57
2022-12-04T13:41:44.310Z,6.57
2022-12-04T13:44:19.685Z,6.90
2022-12-04T13:46:59.013Z,7.60
2022-12-04T13:49:32.085Z,6.37
2022-12-04T13:52:02.450Z,7.53
2022-12-04T13:54:33.721Z,6.80
2022-12-04T13:57:26.371Z,11.80
2022-12-04T14:00:33.739Z,5.70
2022-12-04T14:03:06.283Z,5.67
2022-12-04T14:05:43.011Z,5.03
2022-12-04T14:08:25.822Z,5.63
2022-12-04T14:11:03.092Z,6.00
2022-12-04T14:13:47.891Z,6.57
2022-12-04T14:16:40.229Z,6.50
2022-12-04T14:19:09.169Z,5.60
2022-12-04T14:21:45.253Z,6.60
2022-12-04T14:24:32.027Z,5.27
2022-12-04T14:27:15.073Z,4.80
2022-12-04T14:29:56.785Z,5.37
2022-12-04T14:32:32.011Z,7.43
2022-12-04T14:35:00.355Z,13.10
2022-12-04T14:37:41.181Z,6.23
2022-12-04T14:40:19.987Z,6.50
2022-12-04T14:42:49.361Z,7.00
2022-12-04T14:45:40.228Z,5.43
2022-12-04T14:48:35.561Z,6.43
2022-12-04T14:51:20.755Z,5.20
2022-12-04T14:54:00.786Z,5.97
2022-12-04T14:56:49.897Z,5.90
2022-12-04T14:59:22.849Z,5.72
2022-12-04T15:01:53.937Z,7.60
2022-12-04T15:04:33.770Z,8.00
2022-12-04T15:07:03.193Z,10.13
2022-12-04T15:09:49.155Z,9.13
2022-12-04T15:12:35.002Z,6.43
2022-12-04T15:15:27.836Z,6.13
2022-12-04T15:18:12.298Z,5.23
2022-12-04T15:21:01.067Z,7.00
2022-12-04T15:23:37.712Z,9.60
2022-12-04T15:26:11.176Z,24.63
2022-12-04T15:28:45.870Z,8.43
2022-12-04T15:31:22.780Z,12.00
2022-12-04T15:33:55.780Z,6.80
2022-12-04T15:36:51.055Z,5.60
2022-12-04T15:39:25.825Z,6.40
2022-12-04T15:42:06.727Z,7.03
2022-12-04T15:44:35.947Z,5.90
2022-12-04T15:47:17.850Z,7.35
2022-12-04T15:49:45.711Z,6.27
2022-12-04T15:52:17.260Z,5.97
2022-12-04T15:54:56.923Z,9.93
2022-12-04T15:57:40.230Z,8.67
2022-12-04T16:00:24.300Z,8.30
2022-12-04T16:02:52.382Z,7.03
2022-12-04T16:05:22.850Z,6.60
2022-12-04T16:07:56.456Z,9.07
2022-12-04T16:10:36.233Z,8.03
2022-12-04T16:13:05.667Z,10.13
2022-12-04T16:15:42.623Z,8.27
2022-12-04T16:18:13.619Z,5.83
2022-12-04T16:20:41.740Z,6.30
2022-12-04T16:23:09.961Z,5.00
2022-12-04T16:25:37.311Z,6.93
2022-12-04T16:28:05.129Z,5.73
2022-12-04T16:30:36.275Z,5.70
2022-12-04T16:33:04.089Z,6.80
2022-12-04T16:35:31.971Z,5.60
2022-12-04T16:37:59.444Z,6.17
2022-12-04T16:40:26.866Z,6.97
2022-12-04T16:42:54.596Z,7.13
2022-12-04T16:45:30.868Z,8.60
2022-12-04T16:47:58.812Z,8.03
2022-12-04T16:50:27.417Z,9.10
2022-12-04T16:52:54.884Z,7.70
2022-12-04T16:55:29.570Z,5.63
2022-12-04T16:57:57.000Z,5.90
2022-12-04T17:00:24.886Z,6.37
2022-12-04T17:02:52.458Z,5.13
2022-12-04T17:05:31.891Z,4.63
2022-12-04T17:08:00.885Z,5.00
2022-12-04T17:10:30.300Z,4.47
2022-12-04T17:12:57.847Z,5.53
2022-12-04T17:15:25.678Z,4.17
2022-12-04T17:17:53.180Z,7.30
2022-12-04T17:20:21.582Z,8.23
2022-12-04T17:22:49.678Z,5.45
2022-12-04T17:25:18.525Z,6.23
2022-12-04T17:27:46.292Z,6.90
2022-12-04T17:30:15.188Z,5.53
2022-12-04T17:32:42.876Z,9.70
2022-12-04T17:35:12.438Z,6.70
2022-12-04T17:37:40.388Z,8.03
2022-12-04T17:40:10.708Z,6.63
2022-12-04T17:42:38.240Z,9.00
2022-12-04T17:45:07.360Z,6.80
2022-12-04T17:47:36.078Z,6.20
2022-12-04T17:50:05.647Z,6.97
2022-12-04T17:52:33.645Z,6.27
2022-12-04T17:55:01.108Z,4.70
2022-12-04T17:57:28.676Z,4.93
2022-12-04T17:59:56.461Z,4.63
2022-12-04T18:02:23.943Z,4.23
2022-12-04T18:04:55.708Z,4.95
2022-12-04T18:07:23.433Z,3.27
2022-12-04T18:09:50.926Z,3.80
2022-12-04T18:12:18.938Z,4.07
2022-12-04T18:14:46.555Z,5.00
2022-12-04T18:17:13.988Z,3.50
2022-12-04T18:19:41.835Z,4.10
2022-12-04T18:22:09.497Z,4.63
2022-12-04T18:24:37.375Z,4.90
2022-12-04T18:27:05.854Z,4.55
2022-12-04T18:29:33.484Z,3.60
2022-12-04T18:32:01.264Z,4.97
2022-12-04T18:34:29.201Z,4.13
2022-12-04T18:36:56.873Z,4.27
2022-12-04T18:39:25.753Z,5.07
2022-12-04T18:41:57.281Z,3.53
2022-12-04T18:44:26.265Z,5.43
2022-12-04T18:46:54.055Z,4.65
2022-12-04T18:49:21.489Z,5.10
2022-12-04T18:51:50.220Z,5.00
2022-12-04T18:56:46.933Z,5.07
2022-12-04T18:59:20.494Z,5.07
2022-12-04T19:01:50.499Z,4.50
2022-12-04T19:04:20.476Z,5.43
2022-12-04T19:06:56.420Z,5.43
2022-12-04T19:12:16.388Z,5.97
2022-12-04T19:14:44.038Z,4.40
2022-12-04T19:17:11.949Z,6.63
2022-12-04T19:19:39.780Z,5.47
2022-12-04T19:22:07.311Z,4.60
2022-12-04T19:24:34.714Z,4.13
2022-12-04T19:27:10.272Z,6.20
2022-12-04T19:29:42.857Z,5.03
2022-12-04T19:32:11.891Z,5.33
2022-12-04T19:34:39.509Z,4.57
2022-12-04T19:37:07.821Z,4.97
2022-12-04T19:39:35.919Z,7.60
2022-12-04T19:42:03.341Z,7.50
2022-12-04T19:47:19.343Z,5.63
2022-12-04T19:49:46.946Z,5.50
2022-12-04T19:52:14.778Z,4.30
2022-12-04T19:54:42.714Z,4.47
2022-12-04T19:57:10.460Z,4.17
2022-12-04T19:59:41.718Z,7.83
2022-12-04T20:02:11.959Z,6.00
2022-12-04T20:04:40.242Z,4.53
2022-12-04T20:07:07.660Z,14.47
2022-12-04T20:09:35.197Z,4.70
2022-12-04T20:12:03.421Z,3.93
2022-12-04T20:14:31.012Z,3.07
2022-12-04T20:16:59.884Z,4.80
2022-12-04T20:21:59.320Z,7.47
2022-12-04T20:24:27.810Z,6.90
2022-12-04T20:26:55.802Z,5.45
2022-12-04T20:29:24.727Z,5.82
2022-12-04T20:31:52.124Z,4.00
2022-12-04T20:34:20.069Z,3.67
2022-12-04T20:36:48.833Z,3.80
2022-12-04T20:39:18.199Z,3.72
2022-12-04T20:41:46.686Z,3.93
2022-12-04T20:44:16.773Z,4.37
2022-12-04T20:46:44.771Z,4.80
2022-12-04T20:49:20.791Z,3.53
2022-12-04T20:51:49.448Z,3.50
2022-12-04T20:54:19.680Z,3.60
2022-12-04T20:56:49.167Z,3.93
2022-12-04T20:59:18.854Z,5.13
2022-12-04T21:01:47.517Z,7.95
2022-12-04T21:04:18.092Z,3.12
2022-12-04T21:06:47.271Z,3.00
2022-12-04T21:09:17.740Z,7.55
2022-12-04T21:11:55.725Z,7.87
2022-12-04T21:14:44.860Z,7.40
2022-12-04T21:17:19.164Z,7.35
2022-12-04T21:19:50.647Z,7.87
2022-12-04T21:22:19.276Z,5.30
2022-12-04T21:24:47.252Z,6.47
2022-12-04T21:27:20.643Z,5.87
2022-12-04T21:29:49.419Z,6.03
2022-12-04T21:32:18.867Z,5.40
2022-12-04T21:34:46.302Z,5.18
2022-12-04T21:37:14.065Z,3.60
2022-12-04T21:39:43.242Z,3.97
2022-12-04T21:42:29.689Z,5.50
2022-12-04T21:45:02.227Z,3.03
2022-12-04T21:47:30.694Z,8.33
2022-12-04T21:49:59.052Z,5.40
2022-12-04T21:52:26.701Z,5.07
2022-12-04T21:54:55.042Z,3.87
2022-12-04T21:57:23.090Z,3.30
2022-12-04T21:59:53.720Z,2.83
2022-12-04T22:02:23.062Z,3.33
2022-12-04T22:04:50.921Z,2.50
2022-12-04T22:07:18.415Z,2.73
2022-12-04T22:09:45.956Z,3.43
2022-12-04T22:15:01.250Z,2.93
2022-12-04T22:17:29.977Z,2.57
2022-12-04T22:19:57.638Z,2.30
2022-12-04T22:22:25.262Z,2.67
2022-12-04T22:24:52.923Z,2.70
2022-12-04T22:27:20.394Z,4.40
2022-12-04T22:29:50.888Z,3.83
2022-12-04T22:32:20.262Z,5.70
2022-12-04T22:34:49.396Z,4.70
2022-12-04T22:37:16.862Z,3.10
2022-12-04T22:39:44.711Z,2.50
2022-12-04T22:42:12.102Z,2.47
2022-12-04T22:44:39.497Z,2.90
2022-12-04T22:47:07.338Z,3.07
2022-12-04T22:49:34.758Z,2.97
2022-12-04T22:52:02.314Z,3.47
2022-12-04T22:54:30.042Z,3.53
2022-12-04T22:56:57.514Z,3.60
2022-12-04T22:59:24.920Z,4.57
2022-12-04T23:01:52.630Z,4.73
2022-12-04T23:04:20.037Z,3.17
2022-12-04T23:06:47.407Z,4.60
2022-12-04T23:09:17.122Z,3.27
2022-12-04T23:14:15.174Z,2.67
2022-12-04T23:16:43.303Z,3.10
2022-12-04T23:19:13.599Z,2.80
2022-12-04T23:21:41.778Z,3.63
2022-12-04T23:24:11.327Z,3.03
2022-12-04T23:26:42.531Z,3.53
2022-12-04T23:29:29.631Z,3.97
2022-12-04T23:31:57.688Z,2.50
2022-12-04T23:34:25.361Z,4.83
2022-12-04T23:36:52.688Z,3.33
2022-12-04T23:39:20.017Z,3.30
2022-12-04T23:41:47.751Z,4.07
2022-12-04T23:44:14.974Z,3.90
2022-12-04T23:46:42.361Z,3.47
2022-12-04T23:49:10.888Z,3.47
2022-12-04T23:51:39.138Z,3.23
2022-12-04T23:54:06.408Z,3.83
2022-12-04T23:56:34.158Z,2.83
2022-12-04T23:59:01.463Z,3.93
